CL Belgium — VRVQ9 — position and weather

sailwx.info

Track history (hours):
 
Tides and Currents Weather Stations Pressure Air Temp Water Temp Dewpoint Dewpoint Depression Visibility Wind Speed Wind Dir Waves Ship Positions

CL Belgium

Last reported at 2017-Oct-15 12:00 UTC. Time now 2017-Oct-20 03:30 UTC.
Position N 48°18' W 038°54'.

Length 245 m; beam 32.2 m; draft 10.8 m.

Type: Ship (hazmat cat A). MMSI: 477616000.

Wind from 220 at 43 knots

Barometer 1008.4 mb
Air temperature 14.0 ° C
Visibility: greater than 5.4 NM
Dewpoint 9.1 ° C

Date/timePositionNaut miles runAvg speedWind from/ knotsBaromVisibWave heightAir tempDewpointWater temp
2017-Oct-15 12:00N 48°18' W 038°54'40216.8 220 / 431008.4 5.4 14.0 9.1
2017-Oct-14 12:00N 48°36' W 028°48'38816.2 330 / 171009.310.8 12.0 6.8
2017-Oct-13 12:00N 49°00' W 019°00'37814.6 220 / 131012.810.8 14.513.2
2017-Oct-12 10:02N 51°04' W 009°44'115.2
2017-Oct-12 09:59N 51°04' W 009°43'715.6
2017-Oct-12 09:31N 51°08' W 009°33'815.4
2017-Oct-12 09:01N 51°12' W 009°22'815.4
2017-Oct-12 08:31N 51°16' W 009°12'815.2
2017-Oct-12 08:01N 51°20' W 009°02'815.8
2017-Oct-12 07:31N 51°24' W 008°51'815.7
2017-Oct-12 07:01N 51°28' W 008°40'815.6
2017-Oct-12 06:31N 51°31' W 008°29'815.7
2017-Oct-12 06:01N 51°34' W 008°17'816.2
2017-Oct-12 05:31N 51°37' W 008°04'816.3
2017-Oct-12 05:01N 51°40' W 007°52'816.4
2017-Oct-12 04:30N 51°43' W 007°40'816.2
2017-Oct-12 04:01N 51°45' W 007°27'816.4
2017-Oct-12 03:31N 51°48' W 007°15'816.4
2017-Oct-12 03:01N 51°50' W 007°02'816.4
2017-Oct-12 02:31N 51°53' W 006°50'816.1
2017-Oct-12 02:01N 51°55' W 006°37'815.8
2017-Oct-12 01:31N 52°00' W 006°27'815.4
2017-Oct-12 01:01N 52°05' W 006°17'714.8
2017-Oct-12 00:30N 52°10' W 006°08'714.5
2017-Oct-12 00:01N 52°16' W 006°03'714.7
2017-Oct-11 23:31N 52°23' W 005°57'714.8
2017-Oct-11 23:01N 52°29' W 005°51'815.0
2017-Oct-11 22:30N 52°36' W 005°44'8815.6
2017-Oct-11 16:53N 53°34' W 003°55'33 1.9
2017-Oct-10 23:58N 53°28' W 003°01'0 0.0
2017-Oct-10 23:28N 53°28' W 003°01'0 0.0
2017-Oct-10 22:55N 53°28' W 003°01'0 0.0
2017-Oct-10 22:28N 53°28' W 003°01'0 0.0
2017-Oct-10 21:55N 53°28' W 003°01'0 0.0
2017-Oct-10 21:28N 53°28' W 003°01'0 0.0
2017-Oct-10 20:55N 53°28' W 003°01'0 0.0
2017-Oct-10 20:25N 53°28' W 003°01'0 0.0
2017-Oct-10 19:58N 53°28' W 003°01'0 0.0
2017-Oct-10 19:28N 53°28' W 003°01'0 0.0
2017-Oct-10 18:58N 53°28' W 003°01'0 0.0
2017-Oct-10 18:28N 53°28' W 003°01'0 0.0
2017-Oct-10 17:58N 53°28' W 003°01'0 0.0
2017-Oct-10 17:28N 53°28' W 003°01'0 0.0
2017-Oct-10 16:58N 53°28' W 003°01'0 0.0
2017-Oct-10 16:28N 53°28' W 003°01'0 0.0
2017-Oct-10 15:58N 53°28' W 003°01'0 0.0
2017-Oct-10 15:28N 53°28' W 003°01'0 0.0
2017-Oct-10 14:58N 53°28' W 003°01'0 0.0
2017-Oct-10 13:55N 53°28' W 003°01'0 0.0
2017-Oct-10 13:19N 53°28' W 003°01'0 0.1
2017-Oct-10 13:00N 53°28' W 003°01'1 1.2
2017-Oct-10 12:30N 53°27' W 003°01'0 0.1
2017-Oct-10 12:00N 53°27' W 003°01'0 1.0
2017-Oct-10 11:30N 53°27' W 003°02'4 7.7
2017-Oct-10 11:00N 53°30' W 003°06'5 9.5
2017-Oct-10 10:30N 53°31' W 003°13'510.9
2017-Oct-10 10:00N 53°31' W 003°23'4 7.4
2017-Oct-10 09:30N 53°31' W 003°29'510.1
2017-Oct-10 09:00N 53°31' W 003°37'510.8
2017-Oct-10 08:30N 53°30' W 003°46'611.3
2017-Oct-10 08:00N 53°30' W 003°56'611.6
2017-Oct-10 07:30N 53°30' W 004°06'8811.7
2017-Oct-10 00:02N 52°18' W 005°28'215.9
2017-Oct-09 23:56N 52°17' W 005°29'716.2
2017-Oct-09 23:30N 52°10' W 005°33'3416.5
2017-Oct-09 21:28N 51°38' W 005°51'715.6
2017-Oct-09 21:00N 51°31' W 005°52'916.1
2017-Oct-09 20:25N 51°22' W 005°51'1518.5
2017-Oct-09 19:36N 51°07' W 005°51'418.2
2017-Oct-09 19:22N 51°02' W 005°51'718.3
2017-Oct-09 19:01N 50°56' W 005°51'1018.4
2017-Oct-09 18:29N 50°46' W 005°51'918.4
2017-Oct-09 18:01N 50°37' W 005°52'1018.6
2017-Oct-09 17:29N 50°28' W 005°53'918.9
2017-Oct-09 17:01N 50°19' W 005°52'1019.4
2017-Oct-09 16:30N 50°09' W 005°52'1418.7
2017-Oct-09 15:45N 49°55' W 005°49'718.4
2017-Oct-09 15:23N 49°53' W 005°39'718.7
2017-Oct-09 15:01N 49°51' W 005°28'1018.9
2017-Oct-09 14:30N 49°50' W 005°14'917.8
2017-Oct-09 14:00N 49°50' W 004°60'917.5
2017-Oct-09 13:28N 49°51' W 004°45'817.4
2017-Oct-09 12:59N 49°52' W 004°32'817.4
2017-Oct-09 12:31N 49°53' W 004°20'917.3
2017-Oct-09 12:01N 49°54' W 004°06'816.8
2017-Oct-09 11:31N 49°56' W 003°53'815.3
2017-Oct-09 11:01N 49°56' W 003°42'815.3
2017-Oct-09 10:31N 49°57' W 003°30'815.0
2017-Oct-09 10:01N 49°59' W 003°18'714.7
2017-Oct-09 09:31N 49°60' W 003°07'714.4
2017-Oct-09 09:00N 50°01' W 002°56'714.2
2017-Oct-09 08:29N 50°02' W 002°45'714.4
2017-Oct-09 08:00N 50°05' W 002°34'1815.0
2017-Oct-09 06:50N 50°06' W 002°07'7918.2
2017-Oct-09 02:29N 49°34' W 000°14'816.1
2017-Oct-09 02:00N 49°31' W 000°04'713.1
2017-Oct-09 01:30N 49°29' E 000°06'2 4.6
2017-Oct-09 00:58N 49°28' E 000°09'0 0.0
2017-Oct-09 00:28N 49°28' E 000°09'0 0.0
2017-Oct-08 23:58N 49°28' E 000°09'0 0.0
2017-Oct-08 23:28N 49°28' E 000°09'0 0.0
2017-Oct-08 22:58N 49°28' E 000°09'0 0.0
2017-Oct-08 22:28N 49°28' E 000°09'0 0.0
2017-Oct-08 21:58N 49°28' E 000°09'0 0.0
2017-Oct-08 21:28N 49°28' E 000°09'0 0.0
2017-Oct-08 20:58N 49°28' E 000°09'0 0.0
2017-Oct-08 20:28N 49°28' E 000°09'0 0.0
2017-Oct-08 19:58N 49°28' E 000°09'0 0.0
2017-Oct-08 19:28N 49°28' E 000°09'0 0.0
2017-Oct-08 18:58N 49°28' E 000°09'0 0.0
2017-Oct-08 18:28N 49°28' E 000°09'0 0.0
2017-Oct-08 17:58N 49°28' E 000°09'0 0.0
2017-Oct-08 17:28N 49°28' E 000°09'0 0.0
2017-Oct-08 16:58N 49°28' E 000°09'0 0.0
2017-Oct-08 16:28N 49°28' E 000°09'0 0.0
2017-Oct-08 15:58N 49°28' E 000°09'0 0.0
2017-Oct-08 15:28N 49°28' E 000°09'0 0.0
2017-Oct-08 14:58N 49°28' E 000°09'0 0.0
2017-Oct-08 14:28N 49°28' E 000°09'0 0.0
2017-Oct-08 13:58N 49°28' E 000°09'0 0.0
2017-Oct-08 13:28N 49°28' E 000°09'0 0.0
2017-Oct-08 12:58N 49°28' E 000°09'0 0.7
2017-Oct-08 12:30N 49°28' E 000°09'4 8.9
2017-Oct-08 12:00N 49°30' E 000°03'713.3
2017-Oct-08 11:30N 49°35' W 000°03'815.3
2017-Oct-08 11:01N 49°43' W 000°02'917.5
2017-Oct-08 10:30N 49°50' E 000°05'4118.3
2017-Oct-08 08:14N 50°28' E 000°32'520.0
2017-Oct-08 08:00N 50°33' E 000°34'1020.6
2017-Oct-08 07:30N 50°39' E 000°46'1121.4
2017-Oct-08 07:00N 50°45' E 000°60'1121.6
2017-Oct-08 06:30N 50°53' E 001°12'1121.6
2017-Oct-08 06:01N 51°01' E 001°23'1020.6
2017-Oct-08 05:30N 51°08' E 001°35'1019.3
2017-Oct-08 05:01N 51°15' E 001°46'918.8
2017-Oct-08 04:30N 51°24' E 001°52'917.9
2017-Oct-08 04:01N 51°31' E 002°01'918.0
2017-Oct-08 03:30N 51°38' E 002°10'917.7
2017-Oct-08 03:00N 51°44' E 002°20'7119.2
2017-Oct-07 23:19N 52°40' E 003°32'620.7
2017-Oct-07 23:00N 52°45' E 003°39'1020.7
2017-Oct-07 22:30N 52°53' E 003°50'1020.4
2017-Oct-07 22:00N 52°59' E 004°03'1020.1
2017-Oct-07 21:30N 53°06' E 004°16'1519.1
2017-Oct-07 20:45N 53°18' E 004°30'919.1
2017-Oct-07 20:18N 53°26' E 004°35'414.6
2017-Oct-07 20:01N 53°29' E 004°38'611.3
2017-Oct-07 19:31N 53°31' E 004°48'917.7
2017-Oct-07 19:01N 53°35' E 005°01'917.5
2017-Oct-07 18:30N 53°38' E 005°15'8618.9
2017-Oct-07 13:56N 53°59' E 007°37'815.7
2017-Oct-07 13:24N 53°53' E 007°47'717.4
2017-Oct-07 13:00N 53°51' E 007°58'816.5
2017-Oct-07 12:30N 53°47' E 008°10'816.4
2017-Oct-07 12:00N 53°42' E 008°21'714.6
2017-Oct-07 11:30N 53°37' E 008°30'2 4.2
2017-Oct-07 10:59N 53°35' E 008°32'0 0.0
2017-Oct-07 10:29N 53°35' E 008°32'0 0.0
2017-Oct-07 09:59N 53°35' E 008°32'0 0.0
2017-Oct-07 09:29N 53°35' E 008°32'0 0.0
2017-Oct-07 08:59N 53°35' E 008°32'0 0.0
2017-Oct-07 08:29N 53°35' E 008°32'0 0.0
2017-Oct-07 07:59N 53°35' E 008°32'0 0.0
2017-Oct-07 07:29N 53°35' E 008°32'0 0.0
2017-Oct-07 06:59N 53°35' E 008°32'0 0.0
2017-Oct-07 06:29N 53°35' E 008°32'0 0.0
2017-Oct-07 05:59N 53°35' E 008°32'0 0.0
2017-Oct-07 05:29N 53°35' E 008°32'0 0.0
2017-Oct-07 04:59N 53°35' E 008°32'0 0.0
2017-Oct-07 04:29N 53°35' E 008°32'0 0.0
2017-Oct-07 03:59N 53°35' E 008°32'0 0.0
2017-Oct-07 03:26N 53°35' E 008°32'0 0.0
2017-Oct-07 02:59N 53°35' E 008°32'0 0.0
2017-Oct-07 02:29N 53°35' E 008°32'0 0.1
2017-Oct-07 01:59N 53°35' E 008°32'0 0.1
2017-Oct-07 01:29N 53°35' E 008°32'0 0.0
2017-Oct-07 00:59N 53°35' E 008°32'0 0.0
2017-Oct-07 00:29N 53°35' E 008°32'0 0.0
2017-Oct-06 23:59N 53°35' E 008°32'0 0.0
2017-Oct-06 23:29N 53°35' E 008°32'0 0.0
2017-Oct-06 22:59N 53°35' E 008°32'0 0.0
2017-Oct-06 22:29N 53°35' E 008°32'0 0.0
2017-Oct-06 21:59N 53°35' E 008°32'0 0.1
2017-Oct-06 21:29N 53°35' E 008°32'0 0.1
2017-Oct-06 20:59N 53°35' E 008°32'0 0.1
2017-Oct-06 20:29N 53°35' E 008°32'0 0.0
2017-Oct-06 20:00N 53°35' E 008°32'0 0.8
2017-Oct-06 19:30N 53°35' E 008°31'4 8.8
2017-Oct-06 19:00N 53°38' E 008°26'815.1
2017-Oct-06 18:30N 53°43' E 008°16'815.3
2017-Oct-06 17:57N 53°49' E 008°06'9413.3
2017-Oct-06 10:55N 53°34' E 005°30'816.6
2017-Oct-06 10:24N 53°31' E 005°17'616.6
2017-Oct-06 10:01N 53°29' E 005°06'816.5
2017-Oct-06 09:31N 53°26' E 004°54'815.6
2017-Oct-06 09:01N 53°22' E 004°42'815.0
2017-Oct-06 08:30N 53°16' E 004°36'815.2
2017-Oct-06 08:00N 53°09' E 004°29'815.1
2017-Oct-06 07:28N 53°03' E 004°21'715.2
2017-Oct-06 07:00N 52°56' E 004°19'815.4
2017-Oct-06 06:30N 52°49' E 004°13'916.2
2017-Oct-06 05:57N 52°42' E 004°03'816.9
2017-Oct-06 05:30N 52°36' E 003°55'1117.3
2017-Oct-06 04:50N 52°28' E 003°42'617.4
2017-Oct-06 04:30N 52°23' E 003°39'917.6
2017-Oct-06 04:00N 52°14' E 003°35'918.1
2017-Oct-06 03:30N 52°07' E 003°27'1018.3
2017-Oct-06 02:59N 51°57' E 003°25'1118.1
2017-Oct-06 02:24N 51°48' E 003°17'615.5
2017-Oct-06 02:00N 51°42' E 003°14'714.0
2017-Oct-06 01:30N 51°35' E 003°11'918.3
2017-Oct-06 01:00N 51°27' E 003°05'612.7
2017-Oct-06 00:30N 51°25' E 003°15'714.5
2017-Oct-06 00:00N 51°25' E 003°27'612.3
2017-Oct-05 23:30N 51°26' E 003°36'3 7.0
2017-Oct-05 23:00N 51°26' E 003°42'611.5
2017-Oct-05 22:30N 51°21' E 003°48'510.4
2017-Oct-05 22:00N 51°23' E 003°56'5 9.3
2017-Oct-05 21:30N 51°26' E 004°01'510.7
2017-Oct-05 21:00N 51°22' E 004°08'4 7.6
2017-Oct-05 20:30N 51°21' E 004°14'4 8.3
2017-Oct-05 20:00N 51°17' E 004°15'0 0.4
2017-Oct-05 19:29N 51°17' E 004°15'0 0.0
2017-Oct-05 18:59N 51°17' E 004°15'0 0.0
2017-Oct-05 18:29N 51°17' E 004°15'0 0.0
2017-Oct-05 17:59N 51°17' E 004°15'0 0.0
2017-Oct-05 17:29N 51°17' E 004°15'0 0.0
2017-Oct-05 16:59N 51°17' E 004°15'0 0.0
2017-Oct-05 15:29N 51°17' E 004°15'0 0.0
2017-Oct-05 14:59N 51°17' E 004°15'0 0.0
2017-Oct-05 14:29N 51°17' E 004°15'0 0.0
2017-Oct-05 13:59N 51°17' E 004°15'0 0.0
2017-Oct-05 13:26N 51°17' E 004°15'0 0.0
2017-Oct-05 12:59N 51°17' E 004°15'0 0.0
2017-Oct-05 12:29N 51°17' E 004°15'  
Track history (hours):
 
Tides and Currents Weather Stations Pressure Air Temp Water Temp Dewpoint Dewpoint Depression Visibility Wind Speed Wind Dir Waves Ship Positions

CL Belgium

Last reported at 2017-Oct-15 12:00 UTC. Time now 2017-Oct-20 03:30 UTC.
Position N 48°18' W 038°54'.

Length 245 m; beam 32.2 m; draft 10.8 m.

Type: Ship (hazmat cat A). MMSI: 477616000.

Wind from 220 at 43 knots

Barometer 1008.4 mb
Air temperature 14.0 ° C
Visibility: greater than 5.4 NM
Dewpoint 9.1 ° C

Date/timePositionNaut miles runAvg speedWind from/ knotsBaromVisibWave heightAir tempDewpointWater temp
2017-Oct-15 12:00N 48°18' W 038°54'40216.8 220 / 431008.4 5.4 14.0 9.1
2017-Oct-14 12:00N 48°36' W 028°48'38816.2 330 / 171009.310.8 12.0 6.8
2017-Oct-13 12:00N 49°00' W 019°00'37814.6 220 / 131012.810.8 14.513.2
2017-Oct-12 10:02N 51°04' W 009°44'115.2
2017-Oct-12 09:59N 51°04' W 009°43'715.6
2017-Oct-12 09:31N 51°08' W 009°33'815.4
2017-Oct-12 09:01N 51°12' W 009°22'815.4
2017-Oct-12 08:31N 51°16' W 009°12'815.2
2017-Oct-12 08:01N 51°20' W 009°02'815.8
2017-Oct-12 07:31N 51°24' W 008°51'815.7
2017-Oct-12 07:01N 51°28' W 008°40'815.6
2017-Oct-12 06:31N 51°31' W 008°29'815.7
2017-Oct-12 06:01N 51°34' W 008°17'816.2
2017-Oct-12 05:31N 51°37' W 008°04'816.3
2017-Oct-12 05:01N 51°40' W 007°52'816.4
2017-Oct-12 04:30N 51°43' W 007°40'816.2
2017-Oct-12 04:01N 51°45' W 007°27'816.4
2017-Oct-12 03:31N 51°48' W 007°15'816.4
2017-Oct-12 03:01N 51°50' W 007°02'816.4
2017-Oct-12 02:31N 51°53' W 006°50'816.1
2017-Oct-12 02:01N 51°55' W 006°37'815.8
2017-Oct-12 01:31N 52°00' W 006°27'815.4
2017-Oct-12 01:01N 52°05' W 006°17'714.8
2017-Oct-12 00:30N 52°10' W 006°08'714.5
2017-Oct-12 00:01N 52°16' W 006°03'714.7
2017-Oct-11 23:31N 52°23' W 005°57'714.8
2017-Oct-11 23:01N 52°29' W 005°51'815.0
2017-Oct-11 22:30N 52°36' W 005°44'8815.6
2017-Oct-11 16:53N 53°34' W 003°55'33 1.9
2017-Oct-10 23:58N 53°28' W 003°01'0 0.0
2017-Oct-10 23:28N 53°28' W 003°01'0 0.0
2017-Oct-10 22:55N 53°28' W 003°01'0 0.0
2017-Oct-10 22:28N 53°28' W 003°01'0 0.0
2017-Oct-10 21:55N 53°28' W 003°01'0 0.0
2017-Oct-10 21:28N 53°28' W 003°01'0 0.0
2017-Oct-10 20:55N 53°28' W 003°01'0 0.0
2017-Oct-10 20:25N 53°28' W 003°01'0 0.0
2017-Oct-10 19:58N 53°28' W 003°01'0 0.0
2017-Oct-10 19:28N 53°28' W 003°01'0 0.0
2017-Oct-10 18:58N 53°28' W 003°01'0 0.0
2017-Oct-10 18:28N 53°28' W 003°01'0 0.0
2017-Oct-10 17:58N 53°28' W 003°01'0 0.0
2017-Oct-10 17:28N 53°28' W 003°01'0 0.0
2017-Oct-10 16:58N 53°28' W 003°01'0 0.0
2017-Oct-10 16:28N 53°28' W 003°01'0 0.0
2017-Oct-10 15:58N 53°28' W 003°01'0 0.0
2017-Oct-10 15:28N 53°28' W 003°01'0 0.0
2017-Oct-10 14:58N 53°28' W 003°01'0 0.0
2017-Oct-10 13:55N 53°28' W 003°01'0 0.0
2017-Oct-10 13:19N 53°28' W 003°01'0 0.1
2017-Oct-10 13:00N 53°28' W 003°01'1 1.2
2017-Oct-10 12:30N 53°27' W 003°01'0 0.1
2017-Oct-10 12:00N 53°27' W 003°01'0 1.0
2017-Oct-10 11:30N 53°27' W 003°02'4 7.7
2017-Oct-10 11:00N 53°30' W 003°06'5 9.5
2017-Oct-10 10:30N 53°31' W 003°13'510.9
2017-Oct-10 10:00N 53°31' W 003°23'4 7.4
2017-Oct-10 09:30N 53°31' W 003°29'510.1
2017-Oct-10 09:00N 53°31' W 003°37'510.8
2017-Oct-10 08:30N 53°30' W 003°46'611.3
2017-Oct-10 08:00N 53°30' W 003°56'611.6
2017-Oct-10 07:30N 53°30' W 004°06'8811.7
2017-Oct-10 00:02N 52°18' W 005°28'215.9
2017-Oct-09 23:56N 52°17' W 005°29'716.2
2017-Oct-09 23:30N 52°10' W 005°33'3416.5
2017-Oct-09 21:28N 51°38' W 005°51'715.6
2017-Oct-09 21:00N 51°31' W 005°52'916.1
2017-Oct-09 20:25N 51°22' W 005°51'1518.5
2017-Oct-09 19:36N 51°07' W 005°51'418.2
2017-Oct-09 19:22N 51°02' W 005°51'718.3
2017-Oct-09 19:01N 50°56' W 005°51'1018.4
2017-Oct-09 18:29N 50°46' W 005°51'918.4
2017-Oct-09 18:01N 50°37' W 005°52'1018.6
2017-Oct-09 17:29N 50°28' W 005°53'918.9
2017-Oct-09 17:01N 50°19' W 005°52'1019.4
2017-Oct-09 16:30N 50°09' W 005°52'1418.7
2017-Oct-09 15:45N 49°55' W 005°49'718.4
2017-Oct-09 15:23N 49°53' W 005°39'718.7
2017-Oct-09 15:01N 49°51' W 005°28'1018.9
2017-Oct-09 14:30N 49°50' W 005°14'917.8
2017-Oct-09 14:00N 49°50' W 004°60'917.5
2017-Oct-09 13:28N 49°51' W 004°45'817.4
2017-Oct-09 12:59N 49°52' W 004°32'817.4
2017-Oct-09 12:31N 49°53' W 004°20'917.3
2017-Oct-09 12:01N 49°54' W 004°06'816.8
2017-Oct-09 11:31N 49°56' W 003°53'815.3
2017-Oct-09 11:01N 49°56' W 003°42'815.3
2017-Oct-09 10:31N 49°57' W 003°30'815.0
2017-Oct-09 10:01N 49°59' W 003°18'714.7
2017-Oct-09 09:31N 49°60' W 003°07'714.4
2017-Oct-09 09:00N 50°01' W 002°56'714.2
2017-Oct-09 08:29N 50°02' W 002°45'714.4
2017-Oct-09 08:00N 50°05' W 002°34'1815.0
2017-Oct-09 06:50N 50°06' W 002°07'7918.2
2017-Oct-09 02:29N 49°34' W 000°14'816.1
2017-Oct-09 02:00N 49°31' W 000°04'713.1
2017-Oct-09 01:30N 49°29' E 000°06'2 4.6
2017-Oct-09 00:58N 49°28' E 000°09'0 0.0
2017-Oct-09 00:28N 49°28' E 000°09'0 0.0
2017-Oct-08 23:58N 49°28' E 000°09'0 0.0
2017-Oct-08 23:28N 49°28' E 000°09'0 0.0
2017-Oct-08 22:58N 49°28' E 000°09'0 0.0
2017-Oct-08 22:28N 49°28' E 000°09'0 0.0
2017-Oct-08 21:58N 49°28' E 000°09'0 0.0
2017-Oct-08 21:28N 49°28' E 000°09'0 0.0
2017-Oct-08 20:58N 49°28' E 000°09'0 0.0
2017-Oct-08 20:28N 49°28' E 000°09'0 0.0
2017-Oct-08 19:58N 49°28' E 000°09'0 0.0
2017-Oct-08 19:28N 49°28' E 000°09'0 0.0
2017-Oct-08 18:58N 49°28' E 000°09'0 0.0
2017-Oct-08 18:28N 49°28' E 000°09'0 0.0
2017-Oct-08 17:58N 49°28' E 000°09'0 0.0
2017-Oct-08 17:28N 49°28' E 000°09'0 0.0
2017-Oct-08 16:58N 49°28' E 000°09'0 0.0
2017-Oct-08 16:28N 49°28' E 000°09'0 0.0
2017-Oct-08 15:58N 49°28' E 000°09'0 0.0
2017-Oct-08 15:28N 49°28' E 000°09'0 0.0
2017-Oct-08 14:58N 49°28' E 000°09'0 0.0
2017-Oct-08 14:28N 49°28' E 000°09'0 0.0
2017-Oct-08 13:58N 49°28' E 000°09'0 0.0
2017-Oct-08 13:28N 49°28' E 000°09'0 0.0
2017-Oct-08 12:58N 49°28' E 000°09'0 0.7
2017-Oct-08 12:30N 49°28' E 000°09'4 8.9
2017-Oct-08 12:00N 49°30' E 000°03'713.3
2017-Oct-08 11:30N 49°35' W 000°03'815.3
2017-Oct-08 11:01N 49°43' W 000°02'917.5
2017-Oct-08 10:30N 49°50' E 000°05'4118.3
2017-Oct-08 08:14N 50°28' E 000°32'520.0
2017-Oct-08 08:00N 50°33' E 000°34'1020.6
2017-Oct-08 07:30N 50°39' E 000°46'1121.4
2017-Oct-08 07:00N 50°45' E 000°60'1121.6
2017-Oct-08 06:30N 50°53' E 001°12'1121.6
2017-Oct-08 06:01N 51°01' E 001°23'1020.6
2017-Oct-08 05:30N 51°08' E 001°35'1019.3
2017-Oct-08 05:01N 51°15' E 001°46'918.8
2017-Oct-08 04:30N 51°24' E 001°52'917.9
2017-Oct-08 04:01N 51°31' E 002°01'918.0
2017-Oct-08 03:30N 51°38' E 002°10'917.7
2017-Oct-08 03:00N 51°44' E 002°20'7119.2
2017-Oct-07 23:19N 52°40' E 003°32'620.7
2017-Oct-07 23:00N 52°45' E 003°39'1020.7
2017-Oct-07 22:30N 52°53' E 003°50'1020.4
2017-Oct-07 22:00N 52°59' E 004°03'1020.1
2017-Oct-07 21:30N 53°06' E 004°16'1519.1
2017-Oct-07 20:45N 53°18' E 004°30'919.1
2017-Oct-07 20:18N 53°26' E 004°35'414.6
2017-Oct-07 20:01N 53°29' E 004°38'611.3
2017-Oct-07 19:31N 53°31' E 004°48'917.7
2017-Oct-07 19:01N 53°35' E 005°01'917.5
2017-Oct-07 18:30N 53°38' E 005°15'8618.9
2017-Oct-07 13:56N 53°59' E 007°37'815.7
2017-Oct-07 13:24N 53°53' E 007°47'717.4
2017-Oct-07 13:00N 53°51' E 007°58'816.5
2017-Oct-07 12:30N 53°47' E 008°10'816.4
2017-Oct-07 12:00N 53°42' E 008°21'714.6
2017-Oct-07 11:30N 53°37' E 008°30'2 4.2
2017-Oct-07 10:59N 53°35' E 008°32'0 0.0
2017-Oct-07 10:29N 53°35' E 008°32'0 0.0
2017-Oct-07 09:59N 53°35' E 008°32'0 0.0
2017-Oct-07 09:29N 53°35' E 008°32'0 0.0
2017-Oct-07 08:59N 53°35' E 008°32'0 0.0
2017-Oct-07 08:29N 53°35' E 008°32'0 0.0
2017-Oct-07 07:59N 53°35' E 008°32'0 0.0
2017-Oct-07 07:29N 53°35' E 008°32'0 0.0
2017-Oct-07 06:59N 53°35' E 008°32'0 0.0
2017-Oct-07 06:29N 53°35' E 008°32'0 0.0
2017-Oct-07 05:59N 53°35' E 008°32'0 0.0
2017-Oct-07 05:29N 53°35' E 008°32'0 0.0
2017-Oct-07 04:59N 53°35' E 008°32'0 0.0
2017-Oct-07 04:29N 53°35' E 008°32'0 0.0
2017-Oct-07 03:59N 53°35' E 008°32'0 0.0
2017-Oct-07 03:26N 53°35' E 008°32'0 0.0
2017-Oct-07 02:59N 53°35' E 008°32'0 0.0
2017-Oct-07 02:29N 53°35' E 008°32'0 0.1
2017-Oct-07 01:59N 53°35' E 008°32'0 0.1
2017-Oct-07 01:29N 53°35' E 008°32'0 0.0
2017-Oct-07 00:59N 53°35' E 008°32'0 0.0
2017-Oct-07 00:29N 53°35' E 008°32'0 0.0
2017-Oct-06 23:59N 53°35' E 008°32'0 0.0
2017-Oct-06 23:29N 53°35' E 008°32'0 0.0
2017-Oct-06 22:59N 53°35' E 008°32'0 0.0
2017-Oct-06 22:29N 53°35' E 008°32'0 0.0
2017-Oct-06 21:59N 53°35' E 008°32'0 0.1
2017-Oct-06 21:29N 53°35' E 008°32'0 0.1
2017-Oct-06 20:59N 53°35' E 008°32'0 0.1
2017-Oct-06 20:29N 53°35' E 008°32'0 0.0
2017-Oct-06 20:00N 53°35' E 008°32'0 0.8
2017-Oct-06 19:30N 53°35' E 008°31'4 8.8
2017-Oct-06 19:00N 53°38' E 008°26'815.1
2017-Oct-06 18:30N 53°43' E 008°16'815.3
2017-Oct-06 17:57N 53°49' E 008°06'9413.3
2017-Oct-06 10:55N 53°34' E 005°30'816.6
2017-Oct-06 10:24N 53°31' E 005°17'616.6
2017-Oct-06 10:01N 53°29' E 005°06'816.5
2017-Oct-06 09:31N 53°26' E 004°54'815.6
2017-Oct-06 09:01N 53°22' E 004°42'815.0
2017-Oct-06 08:30N 53°16' E 004°36'815.2
2017-Oct-06 08:00N 53°09' E 004°29'815.1
2017-Oct-06 07:28N 53°03' E 004°21'715.2
2017-Oct-06 07:00N 52°56' E 004°19'815.4
2017-Oct-06 06:30N 52°49' E 004°13'916.2
2017-Oct-06 05:57N 52°42' E 004°03'816.9
2017-Oct-06 05:30N 52°36' E 003°55'1117.3
2017-Oct-06 04:50N 52°28' E 003°42'617.4
2017-Oct-06 04:30N 52°23' E 003°39'917.6
2017-Oct-06 04:00N 52°14' E 003°35'918.1
2017-Oct-06 03:30N 52°07' E 003°27'1018.3
2017-Oct-06 02:59N 51°57' E 003°25'1118.1
2017-Oct-06 02:24N 51°48' E 003°17'615.5
2017-Oct-06 02:00N 51°42' E 003°14'714.0
2017-Oct-06 01:30N 51°35' E 003°11'918.3
2017-Oct-06 01:00N 51°27' E 003°05'612.7
2017-Oct-06 00:30N 51°25' E 003°15'714.5
2017-Oct-06 00:00N 51°25' E 003°27'612.3
2017-Oct-05 23:30N 51°26' E 003°36'3 7.0
2017-Oct-05 23:00N 51°26' E 003°42'611.5
2017-Oct-05 22:30N 51°21' E 003°48'510.4
2017-Oct-05 22:00N 51°23' E 003°56'5 9.3
2017-Oct-05 21:30N 51°26' E 004°01'510.7
2017-Oct-05 21:00N 51°22' E 004°08'4 7.6
2017-Oct-05 20:30N 51°21' E 004°14'4 8.3
2017-Oct-05 20:00N 51°17' E 004°15'0 0.4
2017-Oct-05 19:29N 51°17' E 004°15'0 0.0
2017-Oct-05 18:59N 51°17' E 004°15'0 0.0
2017-Oct-05 18:29N 51°17' E 004°15'0 0.0
2017-Oct-05 17:59N 51°17' E 004°15'0 0.0
2017-Oct-05 17:29N 51°17' E 004°15'0 0.0
2017-Oct-05 16:59N 51°17' E 004°15'0 0.0
2017-Oct-05 15:29N 51°17' E 004°15'0 0.0
2017-Oct-05 14:59N 51°17' E 004°15'0 0.0
2017-Oct-05 14:29N 51°17' E 004°15'0 0.0
2017-Oct-05 13:59N 51°17' E 004°15'0 0.0
2017-Oct-05 13:26N 51°17' E 004°15'0 0.0
2017-Oct-05 12:59N 51°17' E 004°15'0 0.0
2017-Oct-05 12:29N 51°17' E 004°15'  

Dump ship's entire track history